createdAt,value
2019-01-12T00:02:00.513Z,17.62
2019-01-12T00:04:29.979Z,14.53
2019-01-12T00:06:59.601Z,18.75
2019-01-12T00:09:29.407Z,18.07
2019-01-12T00:11:59.173Z,19.17
2019-01-12T00:14:28.710Z,16.50
2019-01-12T00:16:58.368Z,15.90
2019-01-12T00:19:28.325Z,18.17
2019-01-12T00:21:58.168Z,17.15
2019-01-12T00:24:31.451Z,16.73
2019-01-12T00:26:57.783Z,22.45
2019-01-12T00:29:27.290Z,18.75
2019-01-12T00:31:56.938Z,16.27
2019-01-12T00:34:26.510Z,17.25
2019-01-12T00:36:56.290Z,18.32
2019-01-12T00:39:26.188Z,17.67
2019-01-12T00:41:55.657Z,19.55
2019-01-12T00:44:25.387Z,18.52
2019-01-12T00:46:54.924Z,18.60
2019-01-12T00:49:24.576Z,19.12
2019-01-12T00:51:54.069Z,17.10
2019-01-12T00:54:23.823Z,17.35
2019-01-12T00:56:53.395Z,18.12
2019-01-12T00:59:23.120Z,19.90
2019-01-12T01:01:52.704Z,21.80
2019-01-12T01:04:22.272Z,21.55
2019-01-12T01:06:51.784Z,21.27
2019-01-12T01:09:21.435Z,26.33
2019-01-12T01:11:51.160Z,20.55
2019-01-12T01:14:23.686Z,18.50
2019-01-12T01:16:53.382Z,17.35
2019-01-12T01:19:22.996Z,29.85
2019-01-12T01:21:52.618Z,23.67
2019-01-12T01:24:22.112Z,21.05
2019-01-12T01:26:51.831Z,25.72
2019-01-12T01:29:21.269Z,22.40
2019-01-12T01:31:50.966Z,18.40
2019-01-12T01:34:20.505Z,17.75
2019-01-12T01:36:50.120Z,18.60
2019-01-12T01:39:19.903Z,19.40
2019-01-12T01:41:49.860Z,19.48
2019-01-12T01:44:19.938Z,18.10
2019-01-12T01:46:49.691Z,19.60
2019-01-12T01:49:19.157Z,19.35
2019-01-12T01:51:48.900Z,18.50
2019-01-12T01:54:18.637Z,19.25
2019-01-12T01:56:48.093Z,18.50
2019-01-12T01:59:17.561Z,19.10
2019-01-12T02:01:47.293Z,18.40
2019-01-12T02:04:16.905Z,19.20
2019-01-12T02:06:46.320Z,18.57
2019-01-12T02:09:15.979Z,17.62
2019-01-12T02:11:45.577Z,18.50
2019-01-12T02:14:15.244Z,16.95
2019-01-12T02:16:45.007Z,17.05
2019-01-12T02:19:14.577Z,17.45
2019-01-12T02:21:44.259Z,17.37
2019-01-12T02:24:13.837Z,19.52
2019-01-12T02:26:43.433Z,19.20
2019-01-12T02:29:13.040Z,19.65
2019-01-12T02:31:42.747Z,20.72
2019-01-12T02:34:12.519Z,20.05
2019-01-12T02:36:42.236Z,19.23
2019-01-12T02:39:11.904Z,18.25
2019-01-12T02:41:41.538Z,17.73
2019-01-12T02:44:11.050Z,16.95
2019-01-12T02:46:40.764Z,18.05
2019-01-12T02:49:10.336Z,16.23
2019-01-12T02:51:39.847Z,16.70
2019-01-12T02:54:09.513Z,32.38
2019-01-12T02:56:39.185Z,15.78
2019-01-12T02:59:09.520Z,15.50
2019-01-12T03:01:39.084Z,15.15
2019-01-12T03:04:08.632Z,13.40
2019-01-12T03:06:38.451Z,14.73
2019-01-12T03:09:09.238Z,11.97
2019-01-12T03:11:38.694Z,14.18
2019-01-12T03:14:08.284Z,14.25
2019-01-12T03:16:37.926Z,14.93
2019-01-12T03:19:07.306Z,15.23
2019-01-12T03:21:36.812Z,13.22
2019-01-12T03:24:06.359Z,15.25
2019-01-12T03:26:35.790Z,14.07
2019-01-12T03:29:05.093Z,14.35
2019-01-12T03:31:34.912Z,13.03
2019-01-12T03:34:04.448Z,13.10
2019-01-12T03:36:34.160Z,14.30
2019-01-12T03:39:03.954Z,14.83
2019-01-12T03:41:33.770Z,13.95
2019-01-12T03:44:03.200Z,13.90
2019-01-12T03:46:33.861Z,14.83
2019-01-12T03:49:03.223Z,14.13
2019-01-12T03:51:32.723Z,14.43
2019-01-12T03:54:02.445Z,13.25
2019-01-12T03:56:32.165Z,14.68
2019-01-12T03:59:01.876Z,13.70
2019-01-12T04:01:31.513Z,14.05
2019-01-12T04:04:01.190Z,16.00
2019-01-12T04:06:30.667Z,14.10
2019-01-12T04:09:00.334Z,13.00
2019-01-12T04:11:29.895Z,13.95
2019-01-12T04:13:59.505Z,13.15
2019-01-12T04:16:29.252Z,11.75
2019-01-12T04:18:58.706Z,12.13
2019-01-12T04:21:28.196Z,12.80
2019-01-12T04:23:57.759Z,12.63
2019-01-12T04:26:27.275Z,11.75
2019-01-12T04:28:56.942Z,11.73
2019-01-12T04:31:26.723Z,12.15
2019-01-12T04:33:56.259Z,11.70
2019-01-12T04:36:25.966Z,10.48
2019-01-12T04:38:55.409Z,12.85
2019-01-12T04:41:24.951Z,11.57
2019-01-12T04:43:54.487Z,8.55
2019-01-12T04:46:24.223Z,11.08
2019-01-12T04:48:53.815Z,34.27
2019-01-12T04:51:23.291Z,20.65
2019-01-12T04:53:52.775Z,11.55
2019-01-12T04:56:22.144Z,12.45
2019-01-12T04:58:51.819Z,12.55
2019-01-12T05:01:21.576Z,12.80
2019-01-12T05:03:51.069Z,12.47
2019-01-12T05:06:20.531Z,12.80
2019-01-12T05:08:50.107Z,11.73
2019-01-12T05:11:19.669Z,13.58
2019-01-12T05:13:49.392Z,12.78
2019-01-12T05:16:19.022Z,12.05
2019-01-12T05:18:48.583Z,14.98
2019-01-12T05:21:18.223Z,9.33
2019-01-12T05:23:48.003Z,11.95
2019-01-12T05:26:17.520Z,15.38
2019-01-12T05:28:47.181Z,16.42
2019-01-12T05:31:16.770Z,11.22
2019-01-12T05:33:46.649Z,14.58
2019-01-12T05:36:15.988Z,15.25
2019-01-12T05:38:45.700Z,15.25
2019-01-12T05:41:15.279Z,14.25
2019-01-12T05:43:44.731Z,15.55
2019-01-12T05:46:14.429Z,13.93
2019-01-12T05:48:43.840Z,9.88
2019-01-12T05:51:13.389Z,14.75
2019-01-12T05:53:43.037Z,12.25
2019-01-12T05:56:12.770Z,13.83
2019-01-12T05:58:42.423Z,14.23
2019-01-12T06:01:12.163Z,13.88
2019-01-12T06:03:41.744Z,13.00
2019-01-12T06:06:11.356Z,12.05
2019-01-12T06:08:41.196Z,10.55
2019-01-12T06:11:10.892Z,11.68
2019-01-12T06:13:40.477Z,12.98
2019-01-12T06:16:10.902Z,13.40
2019-01-12T06:18:41.370Z,14.60
2019-01-12T06:21:10.968Z,13.10
2019-01-12T06:23:42.025Z,16.75
2019-01-12T06:26:11.710Z,15.55
2019-01-12T06:28:41.523Z,12.75
2019-01-12T06:31:11.228Z,20.10
2019-01-12T06:33:40.878Z,49.67
2019-01-12T06:36:10.630Z,18.10
2019-01-12T06:38:40.217Z,15.98
2019-01-12T06:41:09.867Z,31.40
2019-01-12T06:43:40.635Z,27.93
2019-01-12T06:46:10.711Z,14.03
2019-01-12T06:48:41.837Z,11.97
2019-01-12T06:51:13.105Z,11.63
2019-01-12T06:53:43.177Z,13.45
2019-01-12T06:56:12.857Z,13.03
2019-01-12T06:58:42.463Z,13.80
2019-01-12T07:01:12.721Z,13.88
2019-01-12T07:03:42.499Z,13.65
2019-01-12T07:06:12.231Z,14.18
2019-01-12T07:08:41.799Z,22.77
2019-01-12T07:11:11.913Z,51.65
2019-01-12T07:13:41.487Z,23.77
2019-01-12T07:16:12.373Z,12.73
2019-01-12T07:18:42.738Z,12.98
2019-01-12T07:21:12.383Z,12.30
2019-01-12T07:23:42.210Z,12.60
2019-01-12T07:26:17.523Z,11.80
2019-01-12T07:28:43.239Z,12.68
2019-01-12T07:31:12.809Z,14.80
2019-01-12T07:33:42.719Z,14.30
2019-01-12T07:36:12.416Z,12.78
2019-01-12T07:38:43.207Z,13.20
2019-01-12T07:41:12.791Z,12.82
2019-01-12T07:43:42.279Z,13.48
2019-01-12T07:46:12.100Z,11.30
2019-01-12T07:48:41.707Z,12.65
2019-01-12T07:51:11.651Z,13.70
2019-01-12T07:53:41.163Z,14.03
2019-01-12T07:56:10.742Z,12.93
2019-01-12T07:58:40.197Z,14.65
2019-01-12T08:01:09.829Z,14.78
2019-01-12T08:03:39.590Z,13.62
2019-01-12T08:06:09.439Z,14.23
2019-01-12T08:08:38.912Z,55.58
2019-01-12T08:11:08.707Z,16.37
2019-01-12T08:13:38.384Z,13.50
2019-01-12T08:16:07.791Z,18.35
2019-01-12T08:18:37.384Z,12.68
2019-01-12T08:21:07.002Z,11.50
2019-01-12T08:23:36.613Z,13.15
2019-01-12T08:26:06.082Z,13.22
2019-01-12T08:28:35.805Z,16.25
2019-01-12T08:31:05.161Z,12.70
2019-01-12T08:33:34.743Z,10.68
2019-01-12T08:36:06.480Z,9.08
2019-01-12T08:38:36.126Z,84.60
2019-01-12T08:41:05.579Z,12.63
2019-01-12T08:43:35.093Z,26.33
2019-01-12T08:46:04.733Z,18.57
2019-01-12T08:48:34.208Z,11.93
2019-01-12T08:51:03.568Z,11.40
2019-01-12T08:53:34.141Z,12.40
2019-01-12T08:56:03.590Z,13.25
2019-01-12T08:58:33.245Z,12.85
2019-01-12T09:01:02.622Z,11.73
2019-01-12T09:03:32.364Z,45.67
2019-01-12T09:06:01.865Z,24.27
2019-01-12T09:08:31.376Z,11.03
2019-01-12T09:11:00.881Z,12.55
2019-01-12T09:13:30.283Z,12.65
2019-01-12T09:16:00.247Z,12.28
2019-01-12T09:18:29.886Z,13.13
2019-01-12T09:20:59.403Z,49.20
2019-01-12T09:23:29.202Z,9.70
2019-01-12T09:25:58.723Z,9.48
2019-01-12T09:28:28.482Z,8.25
2019-01-12T09:30:58.106Z,8.00
2019-01-12T09:33:27.450Z,9.18
2019-01-12T09:35:57.053Z,8.35
2019-01-12T09:38:26.713Z,6.83
2019-01-12T09:40:56.270Z,79.35
2019-01-12T09:43:25.957Z,21.65
2019-01-12T09:45:55.757Z,7.95
2019-01-12T09:48:25.517Z,8.35
2019-01-12T09:50:55.110Z,6.78
2019-01-12T09:53:24.668Z,7.67
2019-01-12T09:55:54.241Z,7.58
2019-01-12T09:58:23.991Z,9.20
2019-01-12T10:00:53.824Z,8.23
2019-01-12T10:03:23.471Z,9.18
2019-01-12T10:05:53.105Z,7.25
2019-01-12T10:08:22.466Z,50.38
2019-01-12T10:10:51.990Z,8.90
2019-01-12T10:13:21.769Z,8.35
2019-01-12T10:15:51.405Z,6.85
2019-01-12T10:18:21.121Z,7.62
2019-01-12T10:20:50.605Z,8.98
2019-01-12T10:23:20.132Z,8.38
2019-01-12T10:25:49.799Z,7.72
2019-01-12T10:28:19.363Z,5.78
2019-01-12T10:30:49.210Z,7.33
2019-01-12T10:33:18.764Z,8.60
2019-01-12T10:35:48.261Z,8.80
2019-01-12T10:38:18.032Z,13.43
2019-01-12T10:40:47.728Z,6.95
2019-01-12T10:43:17.489Z,6.08
2019-01-12T10:45:47.257Z,8.40
2019-01-12T10:48:16.926Z,7.95
2019-01-12T10:50:46.657Z,20.57
2019-01-12T10:53:16.299Z,15.68
2019-01-12T10:55:45.795Z,8.68
2019-01-12T10:58:15.561Z,8.00
2019-01-12T11:00:45.733Z,9.20
2019-01-12T11:03:15.246Z,19.55
2019-01-12T11:05:44.834Z,11.90
2019-01-12T11:08:14.682Z,10.43
2019-01-12T11:10:44.395Z,9.50
2019-01-12T11:13:14.043Z,8.40
2019-01-12T11:15:43.979Z,8.23
2019-01-12T11:18:14.175Z,47.40
2019-01-12T11:20:43.909Z,41.35
2019-01-12T11:23:13.734Z,13.28
2019-01-12T11:25:43.329Z,8.63
2019-01-12T11:28:13.220Z,10.68
2019-01-12T11:30:42.865Z,11.35
2019-01-12T11:33:12.531Z,9.25
2019-01-12T11:35:42.138Z,8.95
2019-01-12T11:38:11.736Z,8.93
2019-01-12T11:40:41.358Z,8.50
2019-01-12T11:43:10.905Z,12.55
2019-01-12T11:45:40.393Z,24.00
2019-01-12T11:48:09.989Z,11.22
2019-01-12T11:50:39.775Z,10.50
2019-01-12T11:53:09.551Z,9.50
2019-01-12T11:55:40.733Z,11.65
2019-01-12T11:58:10.469Z,11.08
2019-01-12T12:00:40.154Z,9.88
2019-01-12T12:03:09.500Z,8.40
2019-01-12T12:05:38.975Z,13.05
2019-01-12T12:08:08.427Z,7.50
2019-01-12T12:10:37.804Z,8.58
2019-01-12T12:13:07.384Z,7.75
2019-01-12T12:15:37.147Z,8.88
2019-01-12T12:18:06.711Z,8.28
2019-01-12T12:20:36.394Z,8.45
2019-01-12T12:23:08.202Z,26.62
2019-01-12T12:25:37.983Z,136.07
2019-01-12T12:28:09.073Z,7.90
2019-01-12T12:30:39.801Z,8.45
2019-01-12T12:33:09.824Z,7.85
2019-01-12T12:35:39.565Z,8.43
2019-01-12T12:38:11.054Z,8.48
2019-01-12T12:40:40.970Z,8.50
2019-01-12T12:43:10.654Z,17.67
2019-01-12T12:45:40.716Z,26.82
2019-01-12T12:48:10.947Z,7.92
2019-01-12T12:50:41.746Z,7.53
2019-01-12T12:53:11.611Z,9.55
2019-01-12T12:55:41.585Z,9.40
2019-01-12T12:58:11.348Z,8.20
2019-01-12T13:00:41.203Z,7.67
2019-01-12T13:03:10.934Z,30.45
2019-01-12T13:05:40.595Z,49.25
2019-01-12T13:08:11.927Z,17.20
2019-01-12T13:10:41.566Z,10.15
2019-01-12T13:13:11.462Z,5.65
2019-01-12T13:15:42.471Z,7.08
2019-01-12T13:18:11.099Z,6.85
2019-01-12T13:20:41.350Z,7.10
2019-01-12T13:23:11.285Z,7.37
2019-01-12T13:25:41.221Z,7.20
2019-01-12T13:28:10.954Z,6.55
2019-01-12T13:30:40.559Z,12.85
2019-01-12T13:33:10.983Z,6.47
2019-01-12T13:35:40.947Z,6.92
2019-01-12T13:38:10.671Z,7.37
2019-01-12T13:40:40.442Z,6.33
2019-01-12T13:43:10.445Z,7.15
2019-01-12T13:45:40.216Z,7.90
2019-01-12T13:48:10.689Z,6.35
2019-01-12T13:50:40.185Z,9.23
2019-01-12T13:53:09.737Z,6.62
2019-01-12T13:55:39.603Z,7.80
2019-01-12T13:58:10.053Z,7.75
2019-01-12T14:00:38.803Z,8.18
2019-01-12T14:03:08.992Z,6.85
2019-01-12T14:05:38.713Z,7.72
2019-01-12T14:08:08.573Z,7.00
2019-01-12T14:10:38.417Z,7.83
2019-01-12T14:13:08.243Z,8.20
2019-01-12T14:15:37.969Z,8.68
2019-01-12T14:18:07.560Z,9.18
2019-01-12T14:20:38.663Z,8.73
2019-01-12T14:23:08.907Z,8.85
2019-01-12T14:25:38.698Z,8.50
2019-01-12T14:28:08.291Z,8.83
2019-01-12T14:30:37.810Z,9.65
2019-01-12T14:33:07.263Z,46.13
2019-01-12T14:35:37.246Z,9.33
2019-01-12T14:38:06.696Z,10.15
2019-01-12T14:40:36.471Z,9.53
2019-01-12T14:43:05.909Z,9.28
2019-01-12T14:45:35.291Z,9.45
2019-01-12T14:48:05.320Z,9.30
2019-01-12T14:50:34.826Z,9.03
2019-01-12T14:53:04.397Z,8.70
2019-01-12T14:55:34.091Z,7.92
2019-01-12T14:58:03.865Z,9.78
2019-01-12T15:00:33.457Z,9.05
2019-01-12T15:03:03.023Z,8.63
2019-01-12T15:05:35.991Z,8.65
2019-01-12T15:08:03.777Z,9.98
2019-01-12T15:10:33.440Z,9.83
2019-01-12T15:13:03.566Z,10.43
2019-01-12T15:15:33.068Z,15.28
2019-01-12T15:18:02.525Z,13.45
2019-01-12T15:20:33.796Z,13.85
2019-01-12T15:23:03.430Z,11.30
2019-01-12T15:25:33.065Z,12.80
2019-01-12T15:28:08.727Z,14.30
2019-01-12T15:30:33.082Z,15.88
2019-01-12T15:33:05.881Z,13.35
2019-01-12T15:35:39.119Z,13.43
2019-01-12T15:38:09.233Z,13.85
2019-01-12T15:40:41.080Z,14.07
2019-01-12T15:43:10.742Z,9.95
2019-01-12T15:45:40.851Z,11.65
2019-01-12T15:48:11.725Z,10.08
2019-01-12T15:50:41.492Z,9.78
2019-01-12T15:53:11.204Z,8.35
2019-01-12T15:55:41.019Z,7.58
2019-01-12T15:58:16.145Z,9.00
2019-01-12T16:00:41.820Z,9.78
2019-01-12T16:03:14.670Z,9.35
2019-01-12T16:05:44.410Z,8.08
2019-01-12T16:08:14.199Z,9.00
2019-01-12T16:28:05.862Z,8.80
2019-01-12T16:30:35.426Z,8.40
2019-01-12T16:50:27.481Z,13.43
2019-01-12T16:52:57.102Z,15.63
2019-01-12T16:55:26.933Z,19.82
2019-01-12T16:57:56.768Z,17.50
2019-01-12T17:00:29.073Z,36.65
2019-01-12T17:02:59.256Z,15.30
2019-01-12T17:05:28.953Z,14.18
2019-01-12T17:07:58.631Z,16.90
2019-01-12T17:10:28.367Z,19.40
2019-01-12T17:12:57.963Z,18.55
2019-01-12T17:15:34.436Z,49.23
2019-01-12T17:17:57.170Z,933.60
2019-01-12T17:20:28.302Z,999.90
2019-01-12T17:23:00.070Z,60.23
2019-01-12T17:25:30.099Z,250.75
2019-01-12T17:27:59.719Z,82.97
2019-01-12T17:30:29.283Z,932.32
2019-01-12T17:32:59.030Z,639.42
2019-01-12T17:35:29.532Z,539.37
2019-01-12T17:37:58.554Z,778.27
2019-01-12T17:40:28.351Z,607.30
2019-01-12T17:42:58.535Z,717.75
2019-01-12T17:45:28.339Z,891.65
2019-01-12T17:47:57.793Z,999.90
2019-01-12T17:50:28.274Z,999.90
2019-01-12T17:52:59.254Z,928.42
2019-01-12T17:55:29.363Z,33.63
2019-01-12T17:57:58.939Z,24.45
2019-01-12T18:17:50.479Z,10.38
2019-01-12T18:20:20.233Z,12.07
2019-01-12T18:22:49.851Z,18.05
2019-01-12T18:25:19.503Z,16.67
2019-01-12T18:27:49.357Z,12.05
2019-01-12T18:30:20.375Z,7.55
2019-01-12T18:32:50.091Z,9.03
2019-01-12T18:35:19.909Z,11.48
2019-01-12T18:37:49.736Z,9.15
2019-01-12T18:40:19.437Z,9.45
2019-01-12T18:42:48.918Z,14.20
2019-01-12T18:45:18.936Z,12.95
2019-01-12T18:47:49.672Z,14.07
2019-01-12T18:50:21.341Z,12.07
2019-01-12T19:30:28.110Z,10.32
2019-01-12T19:32:57.739Z,12.28
2019-01-12T19:35:27.417Z,9.40
2019-01-12T19:37:57.339Z,9.55
2019-01-12T19:40:27.436Z,10.72
2019-01-12T19:42:57.004Z,9.20
2019-01-12T19:45:26.365Z,9.73
2019-01-12T19:47:56.129Z,22.20
2019-01-12T19:50:26.668Z,18.87
2019-01-12T20:10:18.716Z,14.58
2019-01-12T20:12:48.395Z,17.87
2019-01-12T20:15:20.471Z,16.23
2019-01-12T20:17:50.584Z,18.42
2019-01-12T20:20:20.276Z,22.15
2019-01-12T20:22:50.310Z,22.22
2019-01-12T20:25:22.438Z,21.23
2019-01-12T20:27:52.087Z,37.93
2019-01-12T20:30:31.457Z,55.83
2019-01-12T20:34:16.784Z,36.00
2019-01-12T20:36:58.739Z,23.80
2019-01-12T20:41:45.971Z,22.85
2019-01-12T21:06:18.537Z,9.10
2019-01-12T21:26:09.929Z,7.70
2019-01-12T21:28:39.641Z,7.53
2019-01-12T21:31:09.323Z,7.75
2019-01-12T21:33:38.946Z,6.78
2019-01-12T21:36:08.760Z,5.75
2019-01-12T21:38:38.442Z,8.15
2019-01-12T21:41:08.072Z,8.80
2019-01-12T21:43:37.803Z,9.50
2019-01-12T21:46:07.252Z,11.50
2019-01-12T21:48:36.897Z,10.72
2019-01-12T21:51:06.471Z,10.03
2019-01-12T21:53:36.106Z,10.38
2019-01-12T21:56:05.667Z,10.25
2019-01-12T21:58:35.381Z,22.35
2019-01-12T22:18:26.654Z,10.78
2019-01-12T22:20:56.230Z,8.78
2019-01-12T22:23:25.791Z,9.08
2019-01-12T22:43:17.383Z,62.20
2019-01-12T22:45:47.543Z,81.05
2019-01-12T23:05:39.114Z,34.48
2019-01-12T23:08:08.735Z,34.23
2019-01-12T23:10:38.364Z,33.95
2019-01-12T23:13:08.332Z,34.10
2019-01-12T23:15:37.695Z,35.68
2019-01-12T23:35:34.545Z,35.63
2019-01-12T23:38:05.017Z,33.92
2019-01-12T23:40:38.577Z,34.50
2019-01-12T23:43:11.204Z,35.90
2019-01-12T23:45:41.697Z,36.83
2019-01-12T23:48:11.626Z,34.23
2019-01-12T23:50:41.142Z,34.88
2019-01-12T23:53:10.835Z,34.55
2019-01-12T23:55:40.940Z,35.52
2019-01-12T23:58:10.711Z,35.25
